Airport View

Enter AWOS ICAO identifier for current METAR.

ex. KFNL

KFOD 250256Z AUTO 05009G17KT 10SM SCT033 18/16 A3005 RMK AO2 LTG DSNT N SLP196 T01830161 53039

25 Jun 2018 03:53

Frequency: 118.775

Phone: 515-955-5490

Other Area AWOS: KEBS - KCAV - KAXA - KBNW

TAF KFOD 242328Z 2500/2524 13009KT P6SM VCTS SCT025CB BKN070 OVC150 FM250700 11010KT P6SM FEW020 SCT060 BKN120 FM252000 11011G17KT P6SM VCTS SCT025CB BKN050 OVC070